sensor_id;sensor_type;location;lat;lon;timestamp;temperature;humidity
20315;DHT22;10315;50.958;13.080;2024-02-14T00:04:19;2.70;99.90
20315;DHT22;10315;50.958;13.080;2024-02-14T00:14:23;2.80;99.90
20315;DHT22;10315;50.958;13.080;2024-02-14T00:24:24;2.90;99.90
20315;DHT22;10315;50.958;13.080;2024-02-14T00:34:28;2.80;99.90
20315;DHT22;10315;50.958;13.080;2024-02-14T00:44:30;2.90;99.90
20315;DHT22;10315;50.958;13.080;2024-02-14T00:54:33;3.00;99.90
20315;DHT22;10315;50.958;13.080;2024-02-14T01:04:35;3.00;99.90
20315;DHT22;10315;50.958;13.080;2024-02-14T01:14:39;3.10;99.90
20315;DHT22;10315;50.958;13.080;2024-02-14T01:24:40;3.00;99.90
20315;DHT22;10315;50.958;13.080;2024-02-14T01:34:44;2.90;99.90
20315;DHT22;10315;50.958;13.080;2024-02-14T01:44:47;3.00;99.90
20315;DHT22;10315;50.958;13.080;2024-02-14T01:54:51;3.10;99.90
20315;DHT22;10315;50.958;13.080;2024-02-14T02:04:52;3.10;99.90
20315;DHT22;10315;50.958;13.080;2024-02-14T02:14:55;3.20;99.90
20315;DHT22;10315;50.958;13.080;2024-02-14T02:24:59;3.10;99.90
20315;DHT22;10315;50.958;13.080;2024-02-14T02:35:01;3.30;99.90
20315;DHT22;10315;50.958;13.080;2024-02-14T02:45:05;3.50;99.90
20315;DHT22;10315;50.958;13.080;2024-02-14T02:55:07;3.60;99.90
20315;DHT22;10315;50.958;13.080;2024-02-14T03:05:10;3.60;99.90
20315;DHT22;10315;50.958;13.080;2024-02-14T03:15:18;3.70;99.90
20315;DHT22;10315;50.958;13.080;2024-02-14T03:25:21;3.70;99.90
20315;DHT22;10315;50.958;13.080;2024-02-14T03:35:24;3.80;99.90
20315;DHT22;10315;50.958;13.080;2024-02-14T03:45:28;3.70;99.90
20315;DHT22;10315;50.958;13.080;2024-02-14T03:55:30;3.70;99.90
20315;DHT22;10315;50.958;13.080;2024-02-14T04:05:33;3.80;99.90
20315;DHT22;10315;50.958;13.080;2024-02-14T04:15:35;3.90;99.90
20315;DHT22;10315;50.958;13.080;2024-02-14T04:25:37;3.90;99.90
20315;DHT22;10315;50.958;13.080;2024-02-14T04:35:39;3.80;99.90
20315;DHT22;10315;50.958;13.080;2024-02-14T04:45:42;3.80;99.90
20315;DHT22;10315;50.958;13.080;2024-02-14T04:55:45;3.70;99.90
20315;DHT22;10315;50.958;13.080;2024-02-14T05:05:48;3.70;99.90
20315;DHT22;10315;50.958;13.080;2024-02-14T05:15:49;3.70;99.90
20315;DHT22;10315;50.958;13.080;2024-02-14T05:25:53;3.90;99.90
20315;DHT22;10315;50.958;13.080;2024-02-14T05:35:54;3.80;99.90
20315;DHT22;10315;50.958;13.080;2024-02-14T05:45:57;3.80;99.90
20315;DHT22;10315;50.958;13.080;2024-02-14T05:55:59;4.00;99.90
20315;DHT22;10315;50.958;13.080;2024-02-14T06:06:02;4.20;99.90
20315;DHT22;10315;50.958;13.080;2024-02-14T06:16:04;4.50;99.90
20315;DHT22;10315;50.958;13.080;2024-02-14T06:26:07;4.70;99.90
20315;DHT22;10315;50.958;13.080;2024-02-14T06:36:08;4.90;99.90
20315;DHT22;10315;50.958;13.080;2024-02-14T06:46:11;5.20;99.90
20315;DHT22;10315;50.958;13.080;2024-02-14T06:56:13;5.20;99.90
20315;DHT22;10315;50.958;13.080;2024-02-14T07:06:16;5.60;99.90
20315;DHT22;10315;50.958;13.080;2024-02-14T07:16:18;6.00;99.90
20315;DHT22;10315;50.958;13.080;2024-02-14T07:26:21;6.20;99.90
20315;DHT22;10315;50.958;13.080;2024-02-14T07:36:23;6.50;99.90
20315;DHT22;10315;50.958;13.080;2024-02-14T07:46:26;6.80;99.90
20315;DHT22;10315;50.958;13.080;2024-02-14T07:56:27;7.50;99.90
20315;DHT22;10315;50.958;13.080;2024-02-14T08:06:33;7.80;99.90
20315;DHT22;10315;50.958;13.080;2024-02-14T08:16:35;8.10;99.90
20315;DHT22;10315;50.958;13.080;2024-02-14T08:26:38;7.70;99.90
20315;DHT22;10315;50.958;13.080;2024-02-14T08:36:39;8.10;99.90
20315;DHT22;10315;50.958;13.080;2024-02-14T08:46:43;8.80;99.90
20315;DHT22;10315;50.958;13.080;2024-02-14T08:56:48;9.60;99.90
20315;DHT22;10315;50.958;13.080;2024-02-14T09:06:51;8.80;99.90
20315;DHT22;10315;50.958;13.080;2024-02-14T09:16:53;8.20;99.90
20315;DHT22;10315;50.958;13.080;2024-02-14T09:26:56;8.50;99.90
20315;DHT22;10315;50.958;13.080;2024-02-14T09:36:58;8.60;99.90
20315;DHT22;10315;50.958;13.080;2024-02-14T09:47:02;8.60;99.90
20315;DHT22;10315;50.958;13.080;2024-02-14T09:57:05;8.50;99.90
20315;DHT22;10315;50.958;13.080;2024-02-14T10:07:08;8.40;99.90
20315;DHT22;10315;50.958;13.080;2024-02-14T10:17:17;8.40;99.90
20315;DHT22;10315;50.958;13.080;2024-02-14T10:27:20;8.30;99.90
20315;DHT22;10315;50.958;13.080;2024-02-14T10:37:23;8.90;99.90
20315;DHT22;10315;50.958;13.080;2024-02-14T10:47:30;9.20;99.90
20315;DHT22;10315;50.958;13.080;2024-02-14T10:57:32;9.50;99.90
20315;DHT22;10315;50.958;13.080;2024-02-14T11:07:35;10.00;99.90
20315;DHT22;10315;50.958;13.080;2024-02-14T11:17:38;10.50;99.90
20315;DHT22;10315;50.958;13.080;2024-02-14T11:27:45;10.80;99.90
20315;DHT22;10315;50.958;13.080;2024-02-14T11:37:51;10.30;99.90
20315;DHT22;10315;50.958;13.080;2024-02-14T11:47:55;10.10;99.90
20315;DHT22;10315;50.958;13.080;2024-02-14T11:57:57;10.60;99.90
20315;DHT22;10315;50.958;13.080;2024-02-14T12:08:01;10.90;99.90
20315;DHT22;10315;50.958;13.080;2024-02-14T12:18:03;10.60;99.90
20315;DHT22;10315;50.958;13.080;2024-02-14T12:28:07;10.40;99.90
20315;DHT22;10315;50.958;13.080;2024-02-14T12:38:08;10.40;99.90
20315;DHT22;10315;50.958;13.080;2024-02-14T12:48:12;10.30;99.90
20315;DHT22;10315;50.958;13.080;2024-02-14T12:58:15;10.70;99.90
20315;DHT22;10315;50.958;13.080;2024-02-14T13:08:19;10.70;99.90
20315;DHT22;10315;50.958;13.080;2024-02-14T13:18:20;10.70;99.90
20315;DHT22;10315;50.958;13.080;2024-02-14T13:28:23;10.60;99.90
20315;DHT22;10315;50.958;13.080;2024-02-14T13:38:25;10.50;99.90
20315;DHT22;10315;50.958;13.080;2024-02-14T13:48:28;10.20;99.90
20315;DHT22;10315;50.958;13.080;2024-02-14T13:58:29;9.80;99.90
20315;DHT22;10315;50.958;13.080;2024-02-14T14:08:34;9.60;99.90
20315;DHT22;10315;50.958;13.080;2024-02-14T14:18:36;9.40;99.90
20315;DHT22;10315;50.958;13.080;2024-02-14T14:28:40;9.50;99.90
20315;DHT22;10315;50.958;13.080;2024-02-14T14:38:42;9.40;99.90
20315;DHT22;10315;50.958;13.080;2024-02-14T14:48:45;9.20;99.90
20315;DHT22;10315;50.958;13.080;2024-02-14T14:58:47;8.90;99.90
20315;DHT22;10315;50.958;13.080;2024-02-14T15:08:50;8.70;99.90
20315;DHT22;10315;50.958;13.080;2024-02-14T15:18:51;9.00;99.90
20315;DHT22;10315;50.958;13.080;2024-02-14T15:28:54;8.90;99.90
20315;DHT22;10315;50.958;13.080;2024-02-14T15:39:17;8.60;99.90
20315;DHT22;10315;50.958;13.080;2024-02-14T15:49:20;8.50;99.90
20315;DHT22;10315;50.958;13.080;2024-02-14T15:59:22;8.50;99.90
20315;DHT22;10315;50.958;13.080;2024-02-14T16:09:24;8.30;99.90
20315;DHT22;10315;50.958;13.080;2024-02-14T16:19:27;8.30;99.90
20315;DHT22;10315;50.958;13.080;2024-02-14T16:29:30;8.10;99.90
20315;DHT22;10315;50.958;13.080;2024-02-14T16:39:32;7.90;99.90
20315;DHT22;10315;50.958;13.080;2024-02-14T16:49:35;7.80;99.90
20315;DHT22;10315;50.958;13.080;2024-02-14T16:59:37;7.90;99.90
20315;DHT22;10315;50.958;13.080;2024-02-14T17:09:41;7.90;99.90
20315;DHT22;10315;50.958;13.080;2024-02-14T17:19:43;8.00;99.90
20315;DHT22;10315;50.958;13.080;2024-02-14T17:29:46;8.00;99.90
20315;DHT22;10315;50.958;13.080;2024-02-14T17:39:48;8.10;99.90
20315;DHT22;10315;50.958;13.080;2024-02-14T17:49:51;8.10;99.90
20315;DHT22;10315;50.958;13.080;2024-02-14T17:59:53;8.20;99.90
20315;DHT22;10315;50.958;13.080;2024-02-14T18:09:57;8.30;99.90
20315;DHT22;10315;50.958;13.080;2024-02-14T18:19:58;8.20;99.90
20315;DHT22;10315;50.958;13.080;2024-02-14T18:30:01;8.30;99.90
20315;DHT22;10315;50.958;13.080;2024-02-14T18:40:04;8.40;99.90
20315;DHT22;10315;50.958;13.080;2024-02-14T18:50:10;8.30;99.90
20315;DHT22;10315;50.958;13.080;2024-02-14T19:00:12;8.30;99.90
20315;DHT22;10315;50.958;13.080;2024-02-14T19:10:15;8.40;99.90
20315;DHT22;10315;50.958;13.080;2024-02-14T19:20:17;8.50;99.90
20315;DHT22;10315;50.958;13.080;2024-02-14T19:30:20;8.50;99.90
20315;DHT22;10315;50.958;13.080;2024-02-14T19:40:21;8.50;99.90
20315;DHT22;10315;50.958;13.080;2024-02-14T19:50:24;8.50;99.90
20315;DHT22;10315;50.958;13.080;2024-02-14T20:00:26;8.60;99.90
20315;DHT22;10315;50.958;13.080;2024-02-14T20:10:29;8.60;99.90
20315;DHT22;10315;50.958;13.080;2024-02-14T20:20:31;8.70;99.90
20315;DHT22;10315;50.958;13.080;2024-02-14T20:30:34;8.30;99.90
20315;DHT22;10315;50.958;13.080;2024-02-14T20:40:36;8.00;99.90
20315;DHT22;10315;50.958;13.080;2024-02-14T20:50:39;7.90;99.90
20315;DHT22;10315;50.958;13.080;2024-02-14T21:00:41;7.80;99.90
20315;DHT22;10315;50.958;13.080;2024-02-14T21:10:44;7.80;99.90
20315;DHT22;10315;50.958;13.080;2024-02-14T21:20:46;7.90;99.90
20315;DHT22;10315;50.958;13.080;2024-02-14T21:30:49;8.00;99.90
20315;DHT22;10315;50.958;13.080;2024-02-14T21:40:50;8.10;99.90
20315;DHT22;10315;50.958;13.080;2024-02-14T21:51:01;8.10;99.90
20315;DHT22;10315;50.958;13.080;2024-02-14T22:01:04;7.90;99.90
20315;DHT22;10315;50.958;13.080;2024-02-14T22:11:10;7.90;99.90
20315;DHT22;10315;50.958;13.080;2024-02-14T22:21:13;7.90;99.90
20315;DHT22;10315;50.958;13.080;2024-02-14T22:31:16;7.80;99.90
20315;DHT22;10315;50.958;13.080;2024-02-14T22:41:18;7.80;99.90
20315;DHT22;10315;50.958;13.080;2024-02-14T22:51:23;7.90;99.90
20315;DHT22;10315;50.958;13.080;2024-02-14T23:01:25;8.00;99.90
20315;DHT22;10315;50.958;13.080;2024-02-14T23:11:27;7.90;99.90
20315;DHT22;10315;50.958;13.080;2024-02-14T23:21:29;8.00;99.90
20315;DHT22;10315;50.958;13.080;2024-02-14T23:31:32;7.90;99.90
20315;DHT22;10315;50.958;13.080;2024-02-14T23:41:33;7.90;99.90
20315;DHT22;10315;50.958;13.080;2024-02-14T23:51:37;8.00;99.90
